Time;durP1;ratioP1;P1;durP2;ratioP2;P2;SDS_P1;SDS_P2;PMS_P1;PMS_P2;Temp;Humidity;BMP_temperature;BMP_pressure;BME280_temperature;BME280_humidity;BME280_pressure;Samples;Min_cycle;Max_cycle;Signal;HPM_P1;HPM_P2
2023/09/28 00:01:45;;;;;;;17.23;13.83;;;;;;;21.50;100.00;96344.06;5035479;28;20244;-85
2023/09/28 00:04:11;;;;;;;18.23;15.40;;;;;;;21.55;100.00;96349.53;5029072;28;20480;-86
2023/09/28 00:06:37;;;;;;;18.47;16.13;;;;;;;21.60;100.00;96352.38;5035423;28;20036;-85
2023/09/28 00:09:03;;;;;;;21.00;14.33;;;;;;;21.65;100.00;96350.63;5008960;28;20030;-85
2023/09/28 00:11:29;;;;;;;17.23;14.67;;;;;;;21.61;100.00;96348.66;5033898;28;20119;-85
2023/09/28 00:13:54;;;;;;;16.67;14.73;;;;;;;21.52;100.00;96342.78;5014356;28;20108;-85
2023/09/28 00:16:20;;;;;;;18.33;15.57;;;;;;;21.39;100.00;96342.94;5016330;28;20021;-84
2023/09/28 00:18:46;;;;;;;18.20;15.33;;;;;;;21.21;100.00;96348.28;5039181;28;20152;-86
2023/09/28 00:21:11;;;;;;;17.10;15.30;;;;;;;20.97;100.00;96350.00;5036868;28;20395;-85
2023/09/28 00:23:37;;;;;;;19.33;16.47;;;;;;;21.33;100.00;96347.31;5041722;28;20029;-84
2023/09/28 00:26:02;;;;;;;17.63;14.87;;;;;;;21.31;100.00;96344.03;5017734;28;20446;-86
2023/09/28 00:28:28;;;;;;;18.67;15.67;;;;;;;21.20;100.00;96352.81;5022019;28;20060;-85
2023/09/28 00:30:55;;;;;;;18.80;15.87;;;;;;;21.05;100.00;96350.50;5030720;28;20488;-85
2023/09/28 00:33:23;;;;;;;19.80;17.07;;;;;;;21.18;100.00;96349.53;5027113;28;20037;-85
2023/09/28 00:35:49;;;;;;;20.43;16.73;;;;;;;21.23;100.00;96348.88;5024562;28;20128;-84
2023/09/28 00:38:15;;;;;;;21.80;16.53;;;;;;;21.25;100.00;96344.94;5011228;28;20026;-84
2023/09/28 00:40:41;;;;;;;18.50;16.07;;;;;;;21.20;100.00;96342.13;5033707;28;20036;-85
2023/09/28 00:43:10;;;;;;;20.57;16.50;;;;;;;21.16;100.00;96343.63;5022333;28;20033;-85
2023/09/28 00:45:37;;;;;;;18.77;15.47;;;;;;;21.06;100.00;96352.16;5033467;28;20022;-85
2023/09/28 00:48:09;;;;;;;17.97;15.63;;;;;;;20.79;100.00;96346.28;5030189;28;20484;-85
2023/09/28 00:50:44;;;;;;;21.33;15.73;;;;;;;21.30;100.00;96342.41;5049331;28;20064;-85
2023/09/28 00:53:10;;;;;;;16.87;14.97;;;;;;;21.32;100.00;96345.66;5037436;28;20053;-85
2023/09/28 00:55:36;;;;;;;19.00;16.50;;;;;;;21.03;100.00;96347.25;5032298;28;20053;-85
2023/09/28 00:58:10;;;;;;;16.80;14.47;;;;;;;21.03;100.00;96349.13;5029611;28;20177;-85
2023/09/28 01:00:38;;;;;;;20.40;15.37;;;;;;;21.40;100.00;96340.06;5019852;28;20033;-84
2023/09/28 01:03:08;;;;;;;18.00;15.27;;;;;;;21.51;100.00;96340.34;5011711;28;20030;-85
2023/09/28 01:05:38;;;;;;;18.80;15.40;;;;;;;21.42;100.00;96340.63;5015974;28;20056;-85
2023/09/28 01:08:12;;;;;;;16.63;14.77;;;;;;;21.40;100.00;96339.25;5032485;28;20490;-85
2023/09/28 01:10:38;;;;;;;;;;;;;;;21.21;100.00;96342.94;5029918;28;20111;-85
2023/09/28 01:13:11;;;;;;;17.03;14.97;;;;;;;21.14;100.00;96343.00;5031975;28;19920;-85
2023/09/28 01:15:41;;;;;;;;;;;;;;;21.06;100.00;96338.78;5036075;28;20079;-85
2023/09/28 01:18:11;;;;;;;18.10;15.20;;;;;;;20.42;100.00;96340.81;5027909;28;19967;-85
2023/09/28 01:20:38;;;;;;;18.17;15.43;;;;;;;20.48;100.00;96341.78;5034409;28;20024;-85
2023/09/28 01:23:04;;;;;;;18.00;15.10;;;;;;;20.43;100.00;96352.31;5018597;28;20029;-85
2023/09/28 01:25:31;;;;;;;16.87;15.13;;;;;;;20.28;100.00;96349.13;5036766;28;20462;-85
2023/09/28 01:27:57;;;;;;;17.40;14.97;;;;;;;20.44;100.00;96351.28;5015369;28;20467;-85
2023/09/28 01:30:23;;;;;;;18.27;15.00;;;;;;;20.11;100.00;96359.53;5015483;28;20029;-85
2023/09/28 01:32:49;;;;;;;17.17;15.10;;;;;;;19.96;100.00;96362.53;5016261;28;20526;-85
2023/09/28 01:35:15;;;;;;;17.33;14.53;;;;;;;19.95;100.00;96364.38;5036772;28;20036;-83
2023/09/28 01:38:05;;;;;;;18.07;15.67;;;;;;;20.18;100.00;96360.31;5035671;28;20025;-85
2023/09/28 01:40:31;;;;;;;18.73;14.53;;;;;;;20.10;100.00;96357.91;5041428;28;20047;-85
2023/09/28 01:42:57;;;;;;;16.40;13.23;;;;;;;20.29;100.00;96356.94;5034449;28;20033;-85
2023/09/28 01:45:22;;;;;;;18.97;14.37;;;;;;;20.38;100.00;96355.63;5034614;28;20431;-84
2023/09/28 01:47:48;;;;;;;16.90;13.20;;;;;;;20.43;100.00;96353.13;5012646;28;20033;-85
2023/09/28 01:50:13;;;;;;;18.53;14.60;;;;;;;19.93;100.00;96353.09;5032477;28;20048;-85
2023/09/28 01:52:42;;;;;;;15.47;13.23;;;;;;;19.93;100.00;96347.75;5017849;28;20033;-87
2023/09/28 01:55:17;;;;;;;15.27;13.50;;;;;;;19.79;100.00;96354.22;5038581;28;20084;-86
2023/09/28 01:57:42;;;;;;;18.03;14.53;;;;;;;19.86;100.00;96352.31;5018517;28;20026;-85
2023/09/28 02:00:16;;;;;;;19.20;13.27;;;;;;;19.85;100.00;96349.84;5012643;28;20120;-84
2023/09/28 02:02:45;;;;;;;15.67;13.40;;;;;;;19.81;100.00;96356.66;5013070;28;20117;-85
2023/09/28 02:05:14;;;;;;;18.30;13.33;;;;;;;19.95;100.00;96351.03;5031411;28;20178;-85
2023/09/28 02:07:40;;;;;;;16.70;13.43;;;;;;;20.06;100.00;96346.84;5024972;28;20032;-85
2023/09/28 02:10:06;;;;;;;15.43;13.43;;;;;;;19.92;100.00;96359.47;5014029;28;20022;-85
2023/09/28 02:12:32;;;;;;;15.67;13.23;;;;;;;19.74;100.00;96356.69;5012005;28;20108;-85
2023/09/28 02:15:03;;;;;;;17.03;12.97;;;;;;;19.73;100.00;96349.72;5012750;28;20033;-85
2023/09/28 02:17:29;;;;;;;18.70;14.30;;;;;;;19.71;100.00;96346.44;5012056;28;20176;-85
2023/09/28 02:19:55;;;;;;;17.43;12.93;;;;;;;19.60;100.00;96352.41;5012057;28;20033;-85
2023/09/28 02:22:20;;;;;;;15.57;12.47;;;;;;;19.81;100.00;96356.66;5028418;28;20030;-84
2023/09/28 02:24:50;;;;;;;14.07;11.87;;;;;;;19.74;100.00;96356.69;5029361;28;20391;-85
2023/09/28 02:27:17;;;;;;;15.57;12.37;;;;;;;19.68;100.00;96357.53;5012913;28;20063;-85
2023/09/28 02:30:16;;;;;;;16.00;11.70;;;;;;;19.83;100.00;96358.06;5029312;28;20022;-85
2023/09/28 02:33:06;;;;;;;14.27;11.03;;;;;;;19.83;100.00;96365.28;5010851;28;20026;-87
2023/09/28 02:35:51;;;;;;;14.07;10.63;;;;;;;19.96;100.00;96365.19;5019197;28;20087;-87
2023/09/28 02:38:28;;;;;;;14.40;10.80;;;;;;;19.87;100.00;96366.47;5028762;28;20032;-84
2023/09/28 02:41:17;;;;;;;12.50;9.77;;;;;;;20.07;100.00;96361.00;5025377;28;20052;-85
2023/09/28 02:43:44;;;;;;;12.57;9.93;;;;;;;19.83;100.00;96368.75;5006898;28;20393;-86
2023/09/28 02:46:16;;;;;;;11.93;9.63;;;;;;;19.88;100.00;96371.56;5020750;28;20045;-84
2023/09/28 02:49:02;;;;;;;13.07;9.80;;;;;;;19.84;100.00;96370.38;5031786;28;20025;-87
2023/09/28 02:51:28;;;;;;;14.37;10.63;;;;;;;19.78;100.00;96371.22;5031436;28;20026;-84
2023/09/28 02:54:03;;;;;;;13.40;9.90;;;;;;;19.87;100.00;96369.94;5018076;28;20017;-87
2023/09/28 02:56:43;;;;;;;13.63;9.67;;;;;;;19.81;100.00;96370.00;5027976;28;20040;-87
2023/09/28 02:59:16;;;;;;;13.40;10.03;;;;;;;19.84;100.00;96367.72;5008279;28;20030;-87
2023/09/28 03:01:42;;;;;;;11.77;9.27;;;;;;;19.72;100.00;96378.25;5007405;28;20029;-86
2023/09/28 03:04:08;;;;;;;14.53;9.87;;;;;;;19.53;100.00;96369.28;5029115;28;20021;-85
2023/09/28 03:06:52;;;;;;;13.53;9.67;;;;;;;19.27;100.00;96366.72;5028274;28;20028;-85
2023/09/28 03:09:19;;;;;;;11.70;9.40;;;;;;;19.73;100.00;96368.41;5021993;28;20484;-85
2023/09/28 03:11:45;;;;;;;13.33;9.73;;;;;;;19.69;100.00;96372.53;5025832;28;20542;-85
2023/09/28 03:14:11;;;;;;;11.83;8.90;;;;;;;19.36;100.00;96373.44;5025377;28;20025;-85
2023/09/28 03:16:37;;;;;;;12.40;9.07;;;;;;;19.52;100.00;96370.31;5003302;28;20044;-85
2023/09/28 03:19:03;;;;;;;11.73;8.80;;;;;;;19.45;100.00;96372.19;5018183;28;20467;-84
2023/09/28 03:21:29;;;;;;;11.47;8.67;;;;;;;19.40;100.00;96381.84;5018497;28;20033;-85
2023/09/28 03:24:01;;;;;;;12.77;8.70;;;;;;;19.07;100.00;96372.91;5027131;28;20033;-85
2023/09/28 03:26:30;;;;;;;12.67;8.83;;;;;;;19.26;100.00;96371.22;5029241;28;20049;-85
2023/09/28 03:28:57;;;;;;;13.93;9.47;;;;;;;19.06;100.00;96375.81;5018530;28;20040;-85
2023/09/28 03:31:27;;;;;;;13.10;8.27;;;;;;;19.00;100.00;96369.44;5024248;28;20055;-85
2023/09/28 03:33:54;;;;;;;15.97;9.53;;;;;;;19.18;100.00;96370.63;5027013;28;20399;-86
2023/09/28 03:36:19;;;;;;;12.47;9.03;;;;;;;19.49;100.00;96365.41;5031634;28;20057;-85
2023/09/28 03:38:46;;;;;;;13.43;9.63;;;;;;;19.19;100.00;96364.28;5020700;28;20402;-85
2023/09/28 03:41:12;;;;;;;11.60;9.77;;;;;;;19.11;100.00;96367.16;5002960;28;20515;-85
2023/09/28 03:43:37;;;;;;;12.40;8.90;;;;;;;19.04;100.00;96361.84;5000870;28;20026;-86
2023/09/28 03:46:04;;;;;;;12.27;9.13;;;;;;;19.20;100.00;96360.59;5023556;28;20029;-86
2023/09/28 03:48:30;;;;;;;15.30;10.00;;;;;;;19.18;100.00;96365.28;5005451;28;20029;-85
2023/09/28 03:50:56;;;;;;;12.37;9.43;;;;;;;19.17;100.00;96366.34;5032712;28;20640;-86
2023/09/28 03:53:22;;;;;;;11.57;8.80;;;;;;;19.22;100.00;96369.19;5023317;28;20116;-86
2023/09/28 03:55:49;;;;;;;12.63;8.70;;;;;;;19.47;100.00;96367.44;5020181;28;20108;-86
2023/09/28 03:58:15;;;;;;;13.60;9.17;;;;;;;19.29;100.00;96372.66;5022358;28;20032;-85
2023/09/28 04:00:42;;;;;;;13.33;8.80;;;;;;;19.27;100.00;96388.03;5010247;28;20045;-85
2023/09/28 04:03:08;;;;;;;11.30;8.37;;;;;;;19.35;100.00;96385.16;5006181;28;20052;-86
2023/09/28 04:05:34;;;;;;;12.30;8.83;;;;;;;19.45;100.00;96390.03;5033486;28;20029;-86
2023/09/28 04:08:00;;;;;;;12.07;7.80;;;;;;;19.28;100.00;96392.34;5009522;28;20047;-85
2023/09/28 04:10:29;;;;;;;12.83;7.83;;;;;;;19.02;100.00;96388.72;5037301;28;20029;-86
2023/09/28 04:12:55;;;;;;;16.37;9.33;;;;;;;19.02;100.00;96393.25;5031296;28;20029;-85
2023/09/28 04:15:22;;;;;;;14.13;8.60;;;;;;;19.18;100.00;96390.13;5028531;28;20037;-85
2023/09/28 04:17:48;;;;;;;10.90;8.13;;;;;;;19.15;100.00;96395.03;5010140;28;20033;-85
2023/09/28 04:20:14;;;;;;;10.80;8.17;;;;;;;18.89;100.00;96407.41;5028827;28;20065;-86
2023/09/28 04:22:40;;;;;;;11.40;8.10;;;;;;;19.05;100.00;96408.81;5028913;28;20056;-85
2023/09/28 04:25:07;;;;;;;13.13;8.50;;;;;;;18.84;100.00;96412.53;5020041;28;20034;-84
2023/09/28 04:27:32;;;;;;;15.67;9.53;;;;;;;18.90;100.00;96414.38;5020815;28;20472;-85
2023/09/28 04:29:58;;;;;;;10.47;8.33;;;;;;;19.04;100.00;96410.66;5030444;28;20029;-86
2023/09/28 04:32:23;;;;;;;13.70;9.13;;;;;;;18.82;100.00;96410.09;5027055;28;20388;-84
2023/09/28 04:34:50;;;;;;;10.30;8.30;;;;;;;18.73;100.00;96418.47;5012460;28;20083;-85
2023/09/28 04:37:19;;;;;;;10.87;7.60;;;;;;;19.02;100.00;96417.22;5037851;28;20026;-85
2023/09/28 04:39:45;;;;;;;12.23;7.57;;;;;;;19.05;100.00;96422.97;5023755;28;20107;-86
2023/09/28 04:42:12;;;;;;;11.03;7.50;;;;;;;19.24;100.00;96429.25;5010498;28;20100;-85
2023/09/28 04:44:39;;;;;;;13.33;6.77;;;;;;;19.00;100.00;96433.41;5006747;28;20061;-85
2023/09/28 04:47:05;;;;;;;13.83;8.20;;;;;;;18.50;100.00;96434.84;5016091;28;20099;-85
2023/09/28 04:49:30;;;;;;;14.40;7.90;;;;;;;18.43;100.00;96434.84;5021428;28;20432;-85
2023/09/28 04:51:56;;;;;;;15.00;9.60;;;;;;;19.04;100.00;96433.81;5032700;28;20030;-85
2023/09/28 04:54:21;;;;;;;15.60;8.53;;;;;;;19.05;100.00;96438.16;5004683;28;20033;-85
2023/09/28 04:56:47;;;;;;;11.83;8.17;;;;;;;18.88;100.00;96436.91;5030052;28;20029;-85
2023/09/28 04:59:13;;;;;;;13.63;8.23;;;;;;;18.77;100.00;96433.84;5015723;28;20025;-84
2023/09/28 05:01:38;;;;;;;10.70;7.77;;;;;;;18.78;100.00;96432.84;5028686;28;20371;-84
2023/09/28 05:04:04;;;;;;;10.43;7.77;;;;;;;18.80;100.00;96443.28;5027945;28;20025;-85
2023/09/28 05:06:30;;;;;;;14.37;8.47;;;;;;;18.75;100.00;96429.78;5029732;28;20561;-85
2023/09/28 05:08:56;;;;;;;13.37;9.23;;;;;;;18.54;100.00;96433.41;5010403;28;20037;-85
2023/09/28 05:11:21;;;;;;;12.70;8.60;;;;;;;18.52;100.00;96436.28;5008221;28;20918;-85
2023/09/28 05:13:47;;;;;;;13.63;7.67;;;;;;;18.69;100.00;96433.22;5024997;28;20026;-85
2023/09/28 05:16:13;;;;;;;23.90;12.63;;;;;;;18.70;100.00;96435.66;5012155;28;20025;-85
2023/09/28 05:18:39;;;;;;;22.50;10.97;;;;;;;18.70;100.00;96437.50;5025765;28;20021;-84
2023/09/28 05:21:05;;;;;;;13.17;6.90;;;;;;;18.76;100.00;96431.41;5013722;28;20017;-85
2023/09/28 05:23:30;;;;;;;9.97;6.50;;;;;;;18.50;100.00;96429.50;5038995;28;20013;-84
2023/09/28 05:25:56;;;;;;;11.30;6.70;;;;;;;18.33;100.00;96426.44;5022482;28;20102;-85
2023/09/28 05:28:22;;;;;;;10.83;6.37;;;;;;;18.82;100.00;96435.91;5035430;28;20051;-84
2023/09/28 05:30:48;;;;;;;12.77;6.37;;;;;;;18.76;100.00;96436.72;5020268;28;20025;-85
2023/09/28 05:33:13;;;;;;;13.43;7.30;;;;;;;18.57;100.00;96433.00;5036757;28;20044;-84
2023/09/28 05:35:40;;;;;;;12.47;6.90;;;;;;;18.70;100.00;96430.34;5014666;28;20021;-84
2023/09/28 05:38:05;;;;;;;10.37;6.47;;;;;;;18.72;100.00;96435.50;5013193;28;20029;-84
2023/09/28 05:40:32;;;;;;;13.80;6.67;;;;;;;18.56;100.00;96447.34;5022406;28;20029;-84
2023/09/28 05:42:58;;;;;;;10.77;6.33;;;;;;;19.02;100.00;96452.69;5013539;28;20121;-85
2023/09/28 05:45:24;;;;;;;12.17;6.40;;;;;;;19.41;100.00;96458.16;5038119;28;20120;-85
2023/09/28 05:47:49;;;;;;;10.90;5.77;;;;;;;19.34;100.00;96449.34;5031638;28;20088;-85
2023/09/28 05:50:15;;;;;;;11.73;5.90;;;;;;;19.26;100.00;96451.22;5031765;28;20022;-84
2023/09/28 05:52:41;;;;;;;11.80;6.63;;;;;;;19.14;100.00;96455.53;5030300;28;20025;-85
2023/09/28 05:55:07;;;;;;;12.03;6.67;;;;;;;19.26;100.00;96453.06;5014372;28;20029;-85
2023/09/28 05:57:33;;;;;;;10.57;6.90;;;;;;;18.88;100.00;96445.75;5032232;28;20476;-84
2023/09/28 05:59:59;;;;;;;14.07;6.73;;;;;;;19.20;100.00;96454.72;5022099;28;20044;-85
2023/09/28 06:02:24;;;;;;;13.23;6.83;;;;;;;19.10;100.00;96448.19;5013905;28;20115;-85
2023/09/28 06:04:50;;;;;;;10.70;6.20;;;;;;;19.27;100.00;96449.38;5019075;28;20021;-85
2023/09/28 06:07:16;;;;;;;11.57;5.87;;;;;;;19.28;100.00;96443.84;5017460;28;20052;-85
2023/09/28 06:09:42;;;;;;;9.10;6.17;;;;;;;19.21;100.00;96450.19;5014757;28;20464;-85
2023/09/28 06:12:07;;;;;;;10.40;5.10;;;;;;;19.36;100.00;96448.13;5009749;28;20357;-84
2023/09/28 06:14:33;;;;;;;11.73;6.53;;;;;;;19.57;100.00;96463.03;5020416;28;20465;-85
2023/09/28 06:17:00;;;;;;;9.87;5.73;;;;;;;19.54;100.00;96461.59;5011754;28;20030;-85
2023/09/28 06:19:26;;;;;;;10.23;5.63;;;;;;;19.77;100.00;96465.66;5025556;28;20036;-84
2023/09/28 06:21:52;;;;;;;10.07;5.83;;;;;;;19.53;100.00;96470.63;5010845;28;20022;-84
2023/09/28 06:24:18;;;;;;;13.03;6.07;;;;;;;19.98;100.00;96473.38;5034632;28;20033;-84
2023/09/28 06:26:44;;;;;;;9.97;5.57;;;;;;;20.30;100.00;96464.59;5028562;28;20037;-84
2023/09/28 06:29:10;;;;;;;10.53;6.17;;;;;;;20.18;100.00;96472.44;5011526;28;20174;-84
2023/09/28 06:31:36;;;;;;;7.97;5.43;;;;;;;20.26;100.00;96474.88;5037567;28;20021;-85
2023/09/28 06:34:02;;;;;;;9.07;5.27;;;;;;;20.23;100.00;96486.00;5032775;28;20029;-85
2023/09/28 06:36:29;;;;;;;10.73;6.20;;;;;;;20.29;100.00;96505.66;4996123;28;20065;-84
2023/09/28 06:38:57;;;;;;;11.67;6.30;;;;;;;20.39;100.00;96498.03;5028640;28;20032;-84
2023/09/28 06:41:23;;;;;;;17.87;7.40;;;;;;;20.67;100.00;96505.69;5030373;28;20045;-84
2023/09/28 06:43:48;;;;;;;11.50;5.50;;;;;;;21.04;100.00;96492.47;5012331;28;20028;-85
2023/09/28 06:46:14;;;;;;;12.20;6.53;;;;;;;20.62;100.00;96501.00;5030376;28;20036;-84
2023/09/28 06:48:40;;;;;;;10.87;6.43;;;;;;;20.55;100.00;96499.38;5029820;28;20024;-83
2023/09/28 06:51:06;;;;;;;11.20;6.93;;;;;;;20.70;100.00;96498.06;5032163;28;20471;-82
2023/09/28 06:53:32;;;;;;;12.43;6.43;;;;;;;20.78;100.00;96499.63;5039833;28;20032;-82
2023/09/28 06:55:59;;;;;;;8.73;5.50;;;;;;;21.37;100.00;96498.34;5038180;28;20450;-83
2023/09/28 06:58:25;;;;;;;12.40;5.80;;;;;;;21.50;100.00;96493.91;5010736;28;20472;-82
2023/09/28 07:00:51;;;;;;;7.53;4.70;;;;;;;21.60;100.00;96508.41;5030830;28;20415;-83
2023/09/28 07:03:16;;;;;;;12.60;5.03;;;;;;;22.04;100.00;96508.34;5019801;28;20028;-82
2023/09/28 07:05:42;;;;;;;9.30;5.70;;;;;;;21.33;100.00;96499.00;5031993;28;20428;-83
2023/09/28 07:08:07;;;;;;;9.83;6.00;;;;;;;21.26;100.00;96496.38;5011265;28;20040;-83
2023/09/28 07:10:34;;;;;;;10.13;6.72;;;;;;;21.25;100.00;96500.06;5011548;28;20021;-83
2023/09/28 07:13:05;;;;;;;10.27;6.18;;;;;;;22.98;100.00;96481.91;5008506;28;20491;-83
2023/09/28 07:15:34;;;;;;;10.25;6.05;;;;;;;23.83;100.00;96488.66;5027253;28;20103;-83
2023/09/28 07:18:00;;;;;;;10.05;6.72;;;;;;;23.21;100.00;96483.78;5020586;28;20033;-83
2023/09/28 07:20:27;;;;;;;10.23;5.78;;;;;;;23.53;100.00;96481.53;5027668;28;20117;-83
2023/09/28 07:22:53;;;;;;;11.10;5.82;;;;;;;21.67;100.00;96488.78;5020467;28;20037;-83
2023/09/28 07:25:20;;;;;;;9.43;5.78;;;;;;;23.54;100.00;96480.50;5024456;28;20032;-83
2023/09/28 07:27:49;;;;;;;11.45;7.10;;;;;;;24.90;97.50;96488.00;5025055;28;20104;-83
2023/09/28 07:30:18;;;;;;;9.88;6.68;;;;;;;25.99;85.63;96495.56;5031221;28;20033;-83
2023/09/28 07:32:46;;;;;;;8.77;5.57;;;;;;;26.88;77.53;96491.66;5014999;28;20021;-83
2023/09/28 07:35:13;;;;;;;9.95;5.20;;;;;;;27.39;67.20;96483.97;5003418;28;20025;-84
2023/09/28 07:37:40;;;;;;;10.35;6.38;;;;;;;28.12;65.45;96489.53;5028884;28;20030;-83
2023/09/28 07:40:07;;;;;;;10.90;5.10;;;;;;;28.27;64.42;96490.66;5028843;28;20137;-83
2023/09/28 07:42:32;;;;;;;10.20;4.85;;;;;;;28.67;59.68;96506.22;5031649;28;20025;-84
2023/09/28 07:44:58;;;;;;;8.45;4.72;;;;;;;28.09;58.85;96506.28;5014911;28;20040;-84
2023/09/28 07:47:23;;;;;;;7.15;4.72;;;;;;;27.72;62.76;96511.75;5027344;28;20104;-83
2023/09/28 07:49:49;;;;;;;8.88;5.15;;;;;;;27.11;64.36;96512.09;5027582;28;20035;-84
2023/09/28 07:52:20;;;;;;;9.15;4.80;;;;;;;26.25;75.38;96506.63;5016174;28;20475;-84
2023/09/28 07:54:46;;;;;;;7.68;4.90;;;;;;;26.77;75.78;96503.44;5011767;28;20030;-84
2023/09/28 07:57:12;;;;;;;9.10;4.82;;;;;;;27.65;79.75;96503.06;5027323;28;20045;-83
2023/09/28 07:59:39;;;;;;;9.35;5.53;;;;;;;27.64;87.10;96509.56;5017242;28;20021;-83
2023/09/28 08:02:05;;;;;;;9.95;5.72;;;;;;;28.64;79.56;96498.66;5010076;28;20052;-84
2023/09/28 08:04:30;;;;;;;12.32;5.57;;;;;;;29.69;70.85;96494.63;5021100;28;20053;-84
2023/09/28 08:06:57;;;;;;;7.72;5.43;;;;;;;29.06;74.63;96498.44;5013616;28;20479;-84
2023/09/28 08:09:23;;;;;;;9.15;5.97;;;;;;;28.80;74.64;96502.97;5011244;28;20112;-84
2023/09/28 08:11:49;;;;;;;9.68;5.65;;;;;;;29.60;69.70;96491.63;5030908;28;20018;-84
2023/09/28 08:14:16;;;;;;;9.82;5.90;;;;;;;30.13;62.35;96497.44;5018804;28;20047;-84
2023/09/28 08:16:45;;;;;;;7.82;4.63;;;;;;;30.02;60.14;96495.88;5022872;28;20505;-84
2023/09/28 08:19:11;;;;;;;7.40;4.20;;;;;;;28.42;68.22;96505.06;5009041;28;20032;-84
2023/09/28 08:21:38;;;;;;;9.13;4.57;;;;;;;30.57;56.16;96493.19;5027703;28;20025;-84
2023/09/28 08:24:05;;;;;;;7.57;3.90;;;;;;;31.02;48.84;96507.56;5014799;28;20022;-84
2023/09/28 08:26:31;;;;;;;7.65;4.07;;;;;;;30.96;49.35;96501.38;5025899;28;20430;-84
2023/09/28 08:29:00;;;;;;;7.53;3.65;;;;;;;31.86;44.05;96500.84;5027149;28;20033;-85
2023/09/28 08:31:27;;;;;;;8.10;3.88;;;;;;;32.73;44.83;96504.41;5014012;28;20475;-84
2023/09/28 08:33:52;;;;;;;6.70;3.80;;;;;;;32.22;47.94;96505.88;5025982;28;20029;-85
2023/09/28 08:36:18;;;;;;;8.18;3.63;;;;;;;32.87;42.83;96505.28;5017351;28;20028;-85
2023/09/28 08:38:46;;;;;;;10.13;3.60;;;;;;;32.98;42.48;96509.50;5032783;28;20075;-84
2023/09/28 08:41:16;;;;;;;6.80;3.50;;;;;;;33.05;41.77;96512.66;5009632;28;20399;-84
2023/09/28 08:43:52;;;;;;;6.88;3.58;;;;;;;33.73;37.24;96515.88;5059901;28;20096;-84
2023/09/28 08:46:21;;;;;;;6.93;3.45;;;;;;;33.48;37.86;96511.69;5028443;28;20028;-84
2023/09/28 08:48:47;;;;;;;7.07;3.28;;;;;;;32.21;39.36;96511.63;5020409;28;20025;-84
2023/09/28 08:51:13;;;;;;;6.35;3.67;;;;;;;34.17;37.93;96511.78;5026741;28;20017;-84
2023/09/28 08:53:40;;;;;;;10.55;3.72;;;;;;;34.23;37.48;96513.31;5011181;28;20221;-85
2023/09/28 08:56:06;;;;;;;7.15;3.05;;;;;;;35.13;35.81;96516.28;5027184;28;20033;-84
2023/09/28 08:58:36;;;;;;;5.95;3.55;;;;;;;34.72;35.76;96511.75;5013628;28;20028;-85
2023/09/28 09:01:04;;;;;;;5.60;3.13;;;;;;;33.81;34.24;96509.75;5014508;28;20068;-85
2023/09/28 09:03:32;;;;;;;5.30;3.25;;;;;;;35.17;33.75;96509.06;5030171;28;20021;-85
2023/09/28 09:05:58;;;;;;;8.00;3.38;;;;;;;34.54;35.19;96501.75;5030843;28;20079;-85
2023/09/28 09:08:27;;;;;;;6.68;3.60;;;;;;;34.45;34.43;96515.31;5017451;28;20025;-85
2023/09/28 09:10:53;;;;;;;5.85;3.25;;;;;;;35.48;33.98;96519.25;5031285;28;20132;-84
2023/09/28 09:13:20;;;;;;;6.85;3.28;;;;;;;35.10;34.23;96514.16;5027575;28;20032;-85
2023/09/28 09:15:46;;;;;;;6.85;3.65;;;;;;;35.85;32.26;96513.38;5033364;28;20486;-84
2023/09/28 09:18:24;;;;;;;6.00;3.00;;;;;;;35.97;32.54;96514.69;5033880;28;20386;-84
2023/09/28 09:20:56;;;;;;;4.95;2.97;;;;;;;35.75;31.85;96516.38;5033605;28;20022;-84
2023/09/28 09:23:22;;;;;;;5.82;2.85;;;;;;;35.00;33.33;96525.31;5027275;28;20033;-84
2023/09/28 09:25:48;;;;;;;7.53;3.42;;;;;;;35.37;33.16;96519.50;5035145;28;20033;-84
2023/09/28 09:28:29;;;;;;;4.93;3.08;;;;;;;35.72;31.80;96516.22;5031242;28;20404;-84
2023/09/28 09:30:55;;;;;;;6.53;3.35;;;;;;;36.44;30.99;96512.28;5026017;28;20494;-84
2023/09/28 09:33:22;;;;;;;5.15;3.03;;;;;;;35.07;33.62;96517.53;5030260;28;20083;-84
2023/09/28 09:35:49;;;;;;;5.97;3.50;;;;;;;35.51;32.80;96507.69;5026913;28;20510;-84
2023/09/28 09:38:15;;;;;;;5.82;3.40;;;;;;;35.44;32.23;96502.66;5012145;28;20033;-84
2023/09/28 09:40:41;;;;;;;5.70;3.45;;;;;;;35.48;31.29;96497.34;5021016;28;20028;-84
2023/09/28 09:43:08;;;;;;;5.15;2.92;;;;;;;36.30;30.67;96491.31;5042191;28;20033;-84
2023/09/28 09:45:38;;;;;;;7.68;3.45;;;;;;;35.86;32.10;96501.28;5031058;28;20017;-84
2023/09/28 09:48:06;;;;;;;5.15;3.08;;;;;;;36.68;30.05;96495.44;5016244;28;20021;-84
2023/09/28 09:50:35;;;;;;;5.78;3.10;;;;;;;37.26;30.67;96500.44;5043746;28;20017;-84
2023/09/28 09:53:06;;;;;;;7.15;3.55;;;;;;;36.31;30.61;96498.41;5036599;28;20025;-84
2023/09/28 09:55:33;;;;;;;8.32;3.17;;;;;;;36.58;30.51;96500.09;5045259;28;20547;-84
2023/09/28 09:58:01;;;;;;;4.97;3.25;;;;;;;35.77;30.04;96503.19;5040897;28;20040;-84
2023/09/28 10:00:31;;;;;;;5.70;2.75;;;;;;;36.87;29.13;96498.66;5015263;28;20108;-83
2023/09/28 10:02:59;;;;;;;5.63;3.20;;;;;;;36.92;29.33;96500.44;5013212;28;20037;-84
2023/09/28 10:05:26;;;;;;;5.47;2.75;;;;;;;36.98;29.47;96510.13;5020846;28;20429;-84
2023/09/28 10:07:53;;;;;;;5.90;2.95;;;;;;;37.32;27.85;96503.81;5016321;28;20025;-84
2023/09/28 10:10:19;;;;;;;6.88;3.05;;;;;;;36.20;28.36;96496.28;5030766;28;20026;-84
2023/09/28 10:12:47;;;;;;;5.00;2.75;;;;;;;38.12;26.78;96492.28;5038564;28;20025;-84
2023/09/28 10:15:15;;;;;;;4.70;2.95;;;;;;;37.89;27.11;96497.22;5024564;28;20616;-84
2023/09/28 10:17:41;;;;;;;5.35;3.05;;;;;;;38.20;26.78;96495.00;5015206;28;20025;-84
2023/09/28 10:20:07;;;;;;;9.43;3.20;;;;;;;38.38;26.93;96494.94;5021865;28;20087;-84
2023/09/28 10:22:32;;;;;;;5.90;3.05;;;;;;;36.79;25.98;96494.81;5020211;28;20025;-84
2023/09/28 10:24:58;;;;;;;9.18;3.20;;;;;;;36.77;27.74;96496.25;5025564;28;20021;-85
2023/09/28 10:27:24;;;;;;;5.22;2.90;;;;;;;37.44;27.58;96500.44;5027135;28;20095;-84
2023/09/28 10:30:13;;;;;;;6.38;3.03;;;;;;;37.94;27.19;96494.31;5018732;28;20029;-84
2023/09/28 10:32:40;;;;;;;4.45;2.55;;;;;;;36.64;28.52;96510.91;5010521;28;20033;-84
2023/09/28 10:35:11;;;;;;;4.93;2.55;;;;;;;36.69;27.98;96513.47;5010696;28;20026;-84
2023/09/28 10:37:37;;;;;;;6.20;2.67;;;;;;;36.32;28.75;96510.97;5027354;28;20018;-85
2023/09/28 10:40:04;;;;;;;4.47;2.60;;;;;;;36.29;28.23;96511.63;5011086;28;20080;-84
2023/09/28 10:42:30;;;;;;;4.90;2.78;;;;;;;37.18;27.67;96505.94;5008072;28;20025;-84
2023/09/28 10:44:57;;;;;;;4.88;2.90;;;;;;;37.38;27.24;96512.69;5021258;28;20951;-84
2023/09/28 10:47:23;;;;;;;4.38;2.47;;;;;;;37.63;27.47;96508.31;5029031;28;20023;-84
2023/09/28 10:50:10;;;;;;;4.80;2.40;;;;;;;38.60;25.41;96504.78;5012977;28;20025;-84
2023/09/28 10:52:35;;;;;;;9.95;2.30;;;;;;;38.15;25.30;96499.88;5032103;28;20021;-85
2023/09/28 10:55:01;;;;;;;4.60;2.22;;;;;;;38.27;25.67;96494.50;5029554;28;20028;-84
2023/09/28 10:57:33;;;;;;;4.63;2.70;;;;;;;37.83;26.66;96491.13;5030327;28;20036;-85
2023/09/28 11:00:03;;;;;;;5.10;2.58;;;;;;;38.15;27.11;96491.63;5021171;28;20499;-84
2023/09/28 11:02:35;;;;;;;5.38;2.60;;;;;;;37.83;27.09;96491.13;5028781;28;20476;-84
2023/09/28 11:05:00;;;;;;;3.97;2.45;;;;;;;38.18;26.82;96489.03;5031244;28;20021;-84
2023/09/28 11:07:26;;;;;;;4.28;2.55;;;;;;;37.93;26.59;96489.97;5037331;28;20033;-85
2023/09/28 11:09:51;;;;;;;5.05;2.67;;;;;;;38.81;26.16;96485.56;5031137;28;20087;-84
2023/09/28 11:12:18;;;;;;;4.05;2.45;;;;;;;38.60;24.73;96485.56;5025297;28;20025;-84
2023/09/28 11:14:43;;;;;;;4.85;2.70;;;;;;;38.94;26.10;96479.03;5030372;28;20471;-85
2023/09/28 11:17:09;;;;;;;5.72;2.83;;;;;;;36.80;26.69;96484.63;5012877;28;20041;-85
2023/09/28 11:19:35;;;;;;;6.13;2.58;;;;;;;37.78;26.59;96477.56;5034329;28;20017;-85
2023/09/28 11:22:01;;;;;;;4.43;2.72;;;;;;;38.48;26.47;96472.56;5034248;28;20021;-85
2023/09/28 11:24:27;;;;;;;4.63;2.53;;;;;;;37.65;26.71;96479.38;5028261;28;20032;-84